LEMH/MAH METAR and TAF weather

Enter ICAO airport designator
Station Type Date Time Source
LEMH METAR 2019/10/21 02:00 UTC NOAA

LEMH 210200Z AUTO 19006KT 160V230 9999 -RA FEW013/// 19/16 Q1015


Station Type Date Time Source
LEMH Decoded METAR 2019/10/21 02:00 UTC NOAA

Menorca / Mahon, Spain (LEMH) 39-52N 004-14E 82M
Oct 20, 2019 - 10:00 PM EDT / 2019.10.21 0200 UTC
Wind: from the S (190 degrees) at 7 MPH (6 KT) (direction variable):0
Visibility: greater than 7 mile(s):0
Sky conditions: mostly clear
Weather: light rain
Temperature: 66 F (19 C)
Dew Point: 60 F (16 C)
Relative Humidity: 82%
Pressure (altimeter): 29.97 in. Hg (1015 hPa)
ob: LEMH 210200Z AUTO 19006KT 160V230 9999 -RA FEW013/// 19/16 Q1015
cycle: 2

Station Type Date Time Source
LEMH TAF 2019/10/20 21:27 UTC NOAA

TAF LEMH 202000Z 2021/2121 32007KT 9999 FEW020 TX21/2112Z TN15/2106Z PROB40
TEMPO 2021/2024 4000 TSRA SCT018 FEW050CB PROB40
TEMPO 2100/2121 4000 SHRA FEW050TCU
BECMG 2102/2104 27012KT PROB40
TEMPO 2107/2110 BKN010

Example: see airport list